createdAt,value
2023-04-14T00:11:43.843Z,13.00
2023-04-14T00:26:44.445Z,11.70
2023-04-14T00:41:44.744Z,7.80
2023-04-14T00:56:45.179Z,9.60
2023-04-14T01:11:45.442Z,11.90
2023-04-14T01:26:46.071Z,9.60
2023-04-14T01:43:19.814Z,9.20
2023-04-14T01:58:20.113Z,6.20
2023-04-14T02:13:20.258Z,6.90
2023-04-14T02:28:20.987Z,7.70
2023-04-14T02:43:26.053Z,6.10
2023-04-14T02:58:27.303Z,9.40
2023-04-14T03:13:28.568Z,5.60
2023-04-14T03:28:28.671Z,5.90
2023-04-14T03:43:28.970Z,6.30
2023-04-14T03:58:29.456Z,5.90
2023-04-14T04:13:29.871Z,10.60
2023-04-14T04:28:29.926Z,6.70
2023-04-14T04:43:30.110Z,1460.40
2023-04-14T04:58:30.482Z,1149.00
2023-04-14T05:13:30.539Z,783.90
2023-04-14T05:28:30.470Z,552.30
2023-04-14T05:43:31.172Z,533.60
2023-04-14T05:58:31.764Z,465.00
2023-04-14T06:13:34.233Z,447.40
2023-04-14T06:28:36.908Z,459.50
2023-04-14T06:43:36.984Z,449.00
2023-04-14T06:58:37.706Z,170.60
2023-04-14T07:13:37.719Z,755.70
2023-04-14T07:28:39.905Z,505.00
2023-04-14T07:43:39.637Z,476.30
2023-04-14T07:58:39.788Z,781.70
2023-04-14T08:13:40.350Z,188.50
2023-04-14T08:28:41.452Z,300.50
2023-04-14T08:43:42.582Z,384.30
2023-04-14T08:58:43.611Z,178.20
2023-04-14T09:13:43.215Z,176.50
2023-04-14T09:28:43.920Z,202.90
2023-04-14T09:43:43.978Z,146.20
2023-04-14T09:58:44.168Z,158.30
2023-04-14T10:13:44.631Z,162.30
2023-04-14T10:28:44.750Z,164.70
2023-04-14T10:43:44.818Z,161.70
2023-04-14T10:58:45.907Z,224.90
2023-04-14T11:13:45.558Z,149.70
2023-04-14T11:28:46.102Z,150.90
2023-04-14T11:43:45.690Z,140.20
2023-04-14T11:58:45.824Z,138.10
2023-04-14T12:13:46.293Z,83.90
2023-04-14T12:28:46.380Z,130.10
2023-04-14T12:43:46.454Z,142.40
2023-04-14T12:58:46.328Z,154.60
2023-04-14T13:13:46.777Z,80.00
2023-04-14T13:28:47.754Z,97.60
2023-04-14T13:43:47.601Z,91.60
2023-04-14T13:58:47.799Z,108.40
2023-04-14T14:13:48.316Z,128.50
2023-04-14T14:28:48.856Z,71.90
2023-04-14T14:43:48.514Z,69.30
2023-04-14T14:58:49.100Z,44.60
2023-04-14T15:13:50.115Z,40.60
2023-04-14T15:28:49.835Z,40.40
2023-04-14T15:43:49.943Z,47.90
2023-04-14T15:58:50.563Z,39.80
2023-04-14T16:13:51.609Z,38.40
2023-04-14T16:28:52.139Z,38.70
2023-04-14T16:43:51.861Z,35.00
2023-04-14T16:58:52.481Z,37.10
2023-04-14T17:13:52.970Z,34.80
2023-04-14T17:28:53.558Z,32.40
2023-04-14T17:43:53.696Z,16.50
2023-04-14T17:58:53.841Z,6.50
2023-04-14T18:13:54.518Z,6.30
2023-04-14T18:28:54.646Z,7.30
2023-04-14T18:43:55.066Z,11.20
2023-04-14T18:58:55.330Z,10.90
2023-04-14T19:13:55.883Z,9.20
2023-04-14T19:28:56.181Z,10.40
2023-04-14T19:43:56.009Z,16.30
2023-04-14T19:58:56.617Z,13.10
2023-04-14T20:13:56.706Z,16.00
2023-04-14T20:28:56.316Z,14.50
2023-04-14T20:43:56.403Z,15.90
2023-04-14T20:58:57.056Z,26.00
2023-04-14T21:15:30.573Z,22.20
2023-04-14T21:29:02.807Z,26.20
2023-04-14T21:44:03.333Z,22.80
2023-04-14T21:59:05.709Z,21.70
2023-04-14T22:14:05.768Z,22.50
2023-04-14T22:29:05.426Z,28.20
2023-04-14T22:44:05.923Z,34.70
2023-04-14T22:59:05.682Z,38.40
2023-04-14T23:14:06.305Z,48.80
2023-04-14T23:29:06.310Z,47.80
2023-04-14T23:44:06.780Z,45.80
2023-04-14T23:59:06.480Z,43.70
